createdAt,value
2018-09-18T00:00:14.792Z,35.38
2018-09-18T00:01:14.777Z,35.18
2018-09-18T00:02:15.112Z,35.18
2018-09-18T00:03:14.765Z,35.28
2018-09-18T00:04:14.749Z,35.28
2018-09-18T00:05:14.754Z,34.99
2018-09-18T00:06:14.740Z,35.28
2018-09-18T00:07:14.737Z,34.99
2018-09-18T00:08:14.712Z,35.08
2018-09-18T00:09:14.755Z,35.08
2018-09-18T00:10:14.697Z,35.08
2018-09-18T00:11:14.693Z,34.99
2018-09-18T00:12:14.678Z,35.18
2018-09-18T00:13:14.678Z,35.08
2018-09-18T00:14:14.672Z,35.18
2018-09-18T00:15:14.658Z,35.18
2018-09-18T00:16:14.988Z,35.18
2018-09-18T00:17:14.636Z,35.18
2018-09-18T00:18:14.628Z,34.89
2018-09-18T00:19:14.629Z,34.89
2018-09-18T00:20:14.618Z,34.89
2018-09-18T00:21:14.605Z,34.80
2018-09-18T00:22:14.954Z,34.70
2018-09-18T00:23:14.597Z,34.62
2018-09-18T00:24:14.942Z,34.51
2018-09-18T00:25:14.595Z,34.80
2018-09-18T00:26:14.908Z,34.61
2018-09-18T00:27:14.892Z,34.70
2018-09-18T00:28:14.546Z,34.41
2018-09-18T00:29:14.532Z,34.41
2018-09-18T00:31:47.403Z,34.41
2018-09-18T00:32:46.578Z,34.81
2018-09-18T00:34:40.264Z,34.81
2018-09-18T00:35:39.915Z,34.81
2018-09-18T00:37:33.908Z,34.62
2018-09-18T00:38:33.247Z,34.62
2018-09-18T00:40:26.604Z,34.91
2018-09-18T00:41:26.588Z,34.91
2018-09-18T00:43:20.202Z,34.91
2018-09-18T00:44:20.286Z,34.81
2018-09-18T00:46:12.801Z,34.72
2018-09-18T00:47:13.125Z,34.62
2018-09-18T00:49:06.363Z,34.81
2018-09-18T00:50:06.126Z,34.72
2018-09-18T00:51:59.907Z,34.43
2018-09-18T00:52:59.470Z,34.72
2018-09-18T00:54:52.946Z,34.62
2018-09-18T00:55:52.814Z,34.81
2018-09-18T00:57:46.166Z,34.81
2018-09-18T00:58:46.146Z,34.81
2018-09-18T01:00:40.063Z,34.72
2018-09-18T01:01:39.527Z,34.43
2018-09-18T01:03:33.184Z,34.53
2018-09-18T01:04:32.830Z,34.33
2018-09-18T01:06:26.379Z,34.23
2018-09-18T01:07:26.513Z,34.33
2018-09-18T01:09:19.630Z,34.23
2018-09-18T01:10:19.856Z,34.53
2018-09-18T01:12:13.004Z,34.45
2018-09-18T01:13:13.191Z,34.33
2018-09-18T01:15:06.564Z,34.45
2018-09-18T01:16:06.247Z,34.25
2018-09-18T01:17:59.785Z,34.06
2018-09-18T01:18:59.907Z,34.25
2018-09-18T01:20:52.915Z,34.06
2018-09-18T01:21:52.912Z,34.25
2018-09-18T01:23:46.555Z,34.16
2018-09-18T01:24:46.233Z,34.16
2018-09-18T01:26:39.178Z,34.16
2018-09-18T01:27:39.428Z,34.25
2018-09-18T01:29:32.758Z,34.08
2018-09-18T01:30:32.431Z,33.98
2018-09-18T01:33:58.145Z,34.17
2018-09-18T01:34:58.038Z,33.98
2018-09-18T01:36:52.001Z,34.09
2018-09-18T01:37:51.716Z,34.00
2018-09-18T01:39:45.319Z,34.09
2018-09-18T01:40:44.714Z,34.00
2018-09-18T01:42:38.886Z,34.09
2018-09-18T01:43:38.106Z,33.71
2018-09-18T01:45:31.506Z,33.51
2018-09-18T01:46:31.388Z,33.42
2018-09-18T01:48:24.934Z,33.33
2018-09-18T01:49:24.726Z,33.33
2018-09-18T01:51:18.084Z,33.33
2018-09-18T01:52:18.072Z,33.44
2018-09-18T01:54:11.649Z,33.34
2018-09-18T01:55:11.408Z,33.25
2018-09-18T01:57:05.102Z,33.25
2018-09-18T01:58:04.758Z,33.05
2018-09-18T01:59:58.367Z,33.05
2018-09-18T02:00:58.144Z,33.05
2018-09-18T02:02:51.830Z,32.95
2018-09-18T02:03:51.849Z,32.86
2018-09-18T02:05:45.058Z,32.95
2018-09-18T02:06:44.821Z,33.25
2018-09-18T02:08:38.177Z,32.76
2018-09-18T02:09:38.163Z,33.34
2018-09-18T02:11:31.743Z,33.25
2018-09-18T02:12:31.503Z,32.95
2018-09-18T02:14:24.860Z,32.95
2018-09-18T02:15:24.865Z,32.95
2018-09-18T02:17:18.438Z,32.95
2018-09-18T02:18:18.528Z,33.05
2018-09-18T02:20:11.528Z,33.15
2018-09-18T02:21:11.518Z,33.15
2018-09-18T02:23:05.130Z,33.07
2018-09-18T02:24:04.868Z,33.07
2018-09-18T02:25:58.209Z,33.07
2018-09-18T02:26:58.201Z,32.97
2018-09-18T02:28:52.170Z,33.07
2018-09-18T02:29:51.913Z,32.97
2018-09-18T02:31:44.897Z,33.17
2018-09-18T02:32:44.878Z,33.17
2018-09-18T02:34:38.450Z,32.97
2018-09-18T02:35:38.566Z,32.97
2018-09-18T02:37:31.932Z,32.87
2018-09-18T02:38:31.562Z,33.07
2018-09-18T02:40:25.140Z,32.78
2018-09-18T02:41:24.906Z,32.78
2018-09-18T02:43:18.599Z,33.17
2018-09-18T02:44:18.243Z,32.89
2018-09-18T02:46:11.812Z,32.79
2018-09-18T02:47:11.587Z,32.79
2018-09-18T02:49:05.548Z,32.79
2018-09-18T02:50:04.925Z,32.99
2018-09-18T02:51:58.546Z,32.89
2018-09-18T02:52:58.270Z,32.89
2018-09-18T02:54:51.655Z,32.99
2018-09-18T02:55:51.643Z,32.89
2018-09-18T02:57:45.527Z,32.60
2018-09-18T02:58:45.304Z,32.89
2018-09-18T03:00:38.332Z,32.89
2018-09-18T03:01:38.668Z,32.89
2018-09-18T03:03:32.658Z,32.89
2018-09-18T03:04:32.414Z,32.89
2018-09-18T03:06:47.201Z,32.60
2018-09-18T03:07:25.773Z,32.51
2018-09-18T03:09:19.336Z,32.99
2018-09-18T03:10:19.112Z,32.89
2018-09-18T03:12:12.473Z,32.51
2018-09-18T03:13:12.796Z,32.99
2018-09-18T03:15:06.010Z,32.89
2018-09-18T03:16:05.797Z,32.79
2018-09-18T03:17:59.005Z,32.99
2018-09-18T03:18:58.654Z,32.70
2018-09-18T03:20:52.280Z,32.79
2018-09-18T03:21:52.007Z,33.18
2018-09-18T03:23:46.295Z,32.89
2018-09-18T03:24:45.373Z,33.09
2018-09-18T03:26:38.946Z,32.99
2018-09-18T03:27:38.736Z,32.97
2018-09-18T03:29:32.061Z,32.87
2018-09-18T03:30:32.057Z,32.87
2018-09-18T03:33:57.436Z,33.28
2018-09-18T03:34:56.970Z,32.97
2018-09-18T03:36:50.671Z,32.99
2018-09-18T03:37:50.322Z,33.36
2018-09-18T03:39:43.917Z,33.26
2018-09-18T03:40:43.673Z,33.36
2018-09-18T03:42:37.369Z,33.26
2018-09-18T03:43:37.043Z,33.36
2018-09-18T03:45:30.122Z,33.36
2018-09-18T03:46:29.886Z,33.36
2018-09-18T03:48:23.325Z,33.36
2018-09-18T03:49:23.223Z,33.36
2018-09-18T03:51:16.964Z,33.26
2018-09-18T03:52:16.570Z,32.87
2018-09-18T03:54:10.022Z,33.26
2018-09-18T03:55:09.911Z,32.78
2018-09-18T03:57:03.522Z,33.26
2018-09-18T03:58:03.260Z,33.26
2018-09-18T03:59:56.959Z,33.26
2018-09-18T04:00:56.945Z,33.26
2018-09-18T04:02:50.576Z,32.97
2018-09-18T04:03:49.949Z,33.36
2018-09-18T04:05:43.400Z,33.36
2018-09-18T04:06:43.307Z,33.26
2018-09-18T04:10:09.022Z,32.97
2018-09-18T04:11:08.714Z,32.87
2018-09-18T04:13:02.069Z,32.87
2018-09-18T04:14:02.051Z,32.87
2018-09-18T04:15:55.967Z,32.97
2018-09-18T04:16:55.746Z,32.97
2018-09-18T04:18:49.661Z,32.87
2018-09-18T04:19:48.759Z,32.97
2018-09-18T04:21:42.929Z,33.07
2018-09-18T04:22:42.446Z,32.87
2018-09-18T04:24:35.560Z,32.97
2018-09-18T04:25:35.558Z,32.97
2018-09-18T04:27:29.159Z,32.97
2018-09-18T04:28:28.932Z,33.07
2018-09-18T04:30:22.248Z,33.17
2018-09-18T04:31:22.817Z,32.87
2018-09-18T04:33:15.791Z,32.87
2018-09-18T04:34:15.598Z,32.97
2018-09-18T04:36:08.932Z,32.78
2018-09-18T04:37:08.929Z,32.78
2018-09-18T04:39:02.692Z,32.99
2018-09-18T04:40:02.279Z,32.87
2018-09-18T04:43:27.778Z,32.78
2018-09-18T04:44:28.620Z,32.78
2018-09-18T04:46:21.117Z,32.68
2018-09-18T04:47:20.562Z,32.87
2018-09-18T04:49:14.233Z,32.97
2018-09-18T04:50:13.922Z,32.78
2018-09-18T04:52:08.076Z,32.97
2018-09-18T04:53:07.505Z,33.07
2018-09-18T04:55:01.270Z,32.87
2018-09-18T04:56:01.215Z,32.87
2018-09-18T04:57:54.780Z,32.97
2018-09-18T04:58:54.188Z,33.17
2018-09-18T05:00:47.556Z,32.87
2018-09-18T05:01:47.899Z,32.97
2018-09-18T05:03:41.732Z,33.17
2018-09-18T05:04:41.506Z,33.18
2018-09-18T05:06:34.891Z,33.26
2018-09-18T05:07:34.881Z,33.28
2018-09-18T05:09:28.892Z,33.45
2018-09-18T05:10:28.231Z,33.57
2018-09-18T05:12:21.689Z,33.76
2018-09-18T05:13:21.117Z,33.57
2018-09-18T05:15:14.708Z,33.57
2018-09-18T05:16:14.493Z,34.14
2018-09-18T05:18:07.844Z,34.14
2018-09-18T05:19:07.826Z,34.05
2018-09-18T05:21:01.839Z,34.63
2018-09-18T05:22:01.205Z,34.44
2018-09-18T05:23:54.558Z,34.82
2018-09-18T05:24:54.581Z,34.82
2018-09-18T05:26:48.213Z,34.82
2018-09-18T05:27:47.904Z,35.02
2018-09-18T05:29:41.616Z,34.92
2018-09-18T05:30:41.585Z,35.30
2018-09-18T05:32:34.808Z,35.30
2018-09-18T05:33:34.640Z,35.50
2018-09-18T05:35:27.954Z,35.52
2018-09-18T05:36:27.938Z,35.61
2018-09-18T05:38:21.577Z,35.80
2018-09-18T05:39:21.297Z,35.90
2018-09-18T05:41:14.681Z,36.00
2018-09-18T05:42:15.014Z,36.00
2018-09-18T05:44:08.251Z,36.00
2018-09-18T05:45:08.357Z,36.19
2018-09-18T05:47:01.395Z,36.19
2018-09-18T05:48:01.384Z,36.38
2018-09-18T05:49:54.995Z,36.48
2018-09-18T05:50:54.719Z,36.38
2018-09-18T05:52:48.156Z,36.38
2018-09-18T05:53:48.051Z,36.57
2018-09-18T05:55:42.071Z,36.48
2018-09-18T05:56:41.397Z,36.57
2018-09-18T05:58:34.798Z,36.19
2018-09-18T05:59:35.096Z,36.09
2018-09-18T06:01:28.332Z,36.00
2018-09-18T06:02:28.123Z,35.71
2018-09-18T06:04:21.065Z,35.80
2018-09-18T06:05:21.448Z,35.71
2018-09-18T06:07:14.594Z,36.00
2018-09-18T06:08:14.330Z,35.90
2018-09-18T06:10:07.683Z,36.00
2018-09-18T06:11:07.680Z,35.90
2018-09-18T06:13:01.344Z,35.22
2018-09-18T06:14:01.019Z,35.02
2018-09-18T06:15:54.490Z,34.92
2018-09-18T06:16:54.957Z,34.82
2018-09-18T06:19:47.766Z,34.06
2018-09-18T06:21:41.439Z,32.51
2018-09-18T06:22:41.089Z,32.31
2018-09-18T06:24:34.612Z,31.73
2018-09-18T06:25:34.437Z,31.83
2018-09-18T06:27:28.179Z,32.03
2018-09-18T06:28:28.150Z,32.21
2018-09-18T06:30:21.410Z,31.83
2018-09-18T06:31:21.169Z,31.63
2018-09-18T06:33:14.169Z,30.67
2018-09-18T06:34:14.055Z,30.77
2018-09-18T06:36:07.733Z,30.58
2018-09-18T06:37:07.402Z,30.48
2018-09-18T06:39:00.772Z,30.58
2018-09-18T06:40:00.758Z,30.67
2018-09-18T06:41:54.407Z,30.48
2018-09-18T06:42:54.131Z,30.38
2018-09-18T06:44:47.830Z,30.19
2018-09-18T06:45:47.812Z,30.19
2018-09-18T06:47:41.081Z,29.90
2018-09-18T06:48:40.715Z,29.71
2018-09-18T06:50:33.726Z,29.52
2018-09-18T06:51:33.718Z,29.22
2018-09-18T06:53:27.395Z,28.55
2018-09-18T06:54:27.166Z,28.45
2018-09-18T06:56:20.550Z,28.84
2018-09-18T06:57:20.488Z,28.74
2018-09-18T06:59:14.073Z,28.45
2018-09-18T07:00:13.817Z,28.94
2018-09-18T07:02:07.260Z,28.74
2018-09-18T07:03:07.183Z,28.94
2018-09-18T07:05:01.537Z,28.36
2018-09-18T07:06:01.712Z,28.07
2018-09-18T07:08:54.583Z,27.78
2018-09-18T07:10:48.139Z,27.39
2018-09-18T07:11:47.934Z,27.59
2018-09-18T07:13:41.010Z,27.01
2018-09-18T07:14:40.968Z,26.62
2018-09-18T07:16:34.597Z,26.14
2018-09-18T07:17:34.326Z,25.95
2018-09-18T07:19:27.750Z,25.46
2018-09-18T07:20:27.728Z,25.64
2018-09-18T07:22:21.252Z,25.55
2018-09-18T07:23:21.103Z,25.45
2018-09-18T07:25:14.431Z,25.45
2018-09-18T07:26:14.754Z,25.64
2018-09-18T07:28:08.004Z,25.45
2018-09-18T07:29:07.777Z,25.35
2018-09-18T07:31:01.600Z,25.07
2018-09-18T07:32:01.127Z,25.07
2018-09-18T07:33:55.120Z,25.07
2018-09-18T07:34:54.472Z,24.77
2018-09-18T07:36:47.821Z,24.49
2018-09-18T07:37:48.152Z,24.58
2018-09-18T07:39:41.671Z,24.20
2018-09-18T07:40:41.176Z,23.91
2018-09-18T07:42:35.460Z,24.09
2018-09-18T07:43:34.564Z,23.81
2018-09-18T07:45:28.057Z,23.90
2018-09-18T07:46:28.216Z,23.51
2018-09-18T07:48:20.792Z,23.03
2018-09-18T07:49:20.750Z,23.13
2018-09-18T07:51:14.350Z,23.13
2018-09-18T07:52:14.099Z,23.22
2018-09-18T07:54:07.492Z,23.32
2018-09-18T07:55:07.811Z,23.22
2018-09-18T07:57:01.078Z,23.13
2018-09-18T07:58:00.846Z,23.41
2018-09-18T07:59:54.630Z,23.41
2018-09-18T08:00:54.245Z,22.93
2018-09-18T08:02:47.825Z,23.13
2018-09-18T08:03:47.971Z,23.22
2018-09-18T08:05:41.044Z,22.93
2018-09-18T08:06:40.957Z,22.93
2018-09-18T08:08:34.535Z,22.93
2018-09-18T08:09:34.328Z,23.13
2018-09-18T08:11:27.674Z,23.13
2018-09-18T08:14:21.280Z,23.03
2018-09-18T08:15:21.048Z,23.22
2018-09-18T08:17:14.510Z,23.71
2018-09-18T08:18:14.391Z,23.90
2018-09-18T08:20:08.044Z,24.09
2018-09-18T08:21:07.754Z,23.99
2018-09-18T08:23:01.185Z,23.90
2018-09-18T08:24:01.156Z,23.90
2018-09-18T08:25:54.672Z,24.38
2018-09-18T08:26:54.504Z,23.99
2018-09-18T08:28:47.949Z,24.38
2018-09-18T08:31:20.444Z,24.28
2018-09-18T08:32:20.378Z,24.38
2018-09-18T08:34:13.392Z,24.57
2018-09-18T08:35:13.339Z,24.57
2018-09-18T08:37:06.963Z,24.76
2018-09-18T08:38:06.787Z,24.86
2018-09-18T08:40:01.713Z,24.96
2018-09-18T08:41:00.460Z,24.86
2018-09-18T08:42:54.150Z,25.15
2018-09-18T08:43:53.462Z,25.05
2018-09-18T08:45:47.249Z,25.54
2018-09-18T08:46:46.397Z,25.24
2018-09-18T08:48:39.861Z,25.05
2018-09-18T08:49:39.765Z,25.05
2018-09-18T08:51:32.685Z,25.24
2018-09-18T08:52:32.631Z,25.34
2018-09-18T08:54:26.351Z,25.44
2018-09-18T08:55:25.612Z,25.24
2018-09-18T08:57:18.588Z,25.63
2018-09-18T08:58:18.555Z,25.92
2018-09-18T09:00:11.815Z,25.73
2018-09-18T09:01:11.540Z,25.63
2018-09-18T09:03:04.974Z,25.92
2018-09-18T09:04:04.507Z,25.82
2018-09-18T09:05:58.424Z,26.11
2018-09-18T09:06:58.211Z,26.40
2018-09-18T09:08:51.731Z,26.59
2018-09-18T09:09:51.551Z,26.50
2018-09-18T09:11:45.400Z,26.59
2018-09-18T09:12:44.918Z,26.40
2018-09-18T09:14:38.659Z,26.69
2018-09-18T09:15:38.331Z,26.40
2018-09-18T09:17:31.828Z,26.40
2018-09-18T09:18:31.668Z,26.40
2018-09-18T09:20:24.977Z,26.69
2018-09-18T09:21:25.391Z,26.98
2018-09-18T09:23:18.608Z,26.98
2018-09-18T09:24:18.663Z,26.98
2018-09-18T09:26:11.660Z,27.17
2018-09-18T09:27:11.652Z,27.17
2018-09-18T09:29:05.512Z,27.27
2018-09-18T09:30:05.054Z,27.27
2018-09-18T09:31:58.822Z,27.27
2018-09-18T09:32:58.321Z,26.79
2018-09-18T09:34:52.227Z,26.79
2018-09-18T09:35:51.690Z,27.17
2018-09-18T09:37:45.020Z,27.17
2018-09-18T09:38:45.415Z,27.08
2018-09-18T09:40:38.526Z,26.98
2018-09-18T09:41:38.350Z,26.98
2018-09-18T09:43:31.794Z,27.27
2018-09-18T09:44:31.696Z,27.27
2018-09-18T09:46:25.240Z,27.37
2018-09-18T09:47:25.069Z,27.27
2018-09-18T09:49:18.497Z,27.27
2018-09-18T09:50:18.441Z,27.26
2018-09-18T09:52:12.395Z,27.75
2018-09-18T09:53:11.799Z,27.66
2018-09-18T09:55:05.526Z,27.66
2018-09-18T09:56:05.151Z,27.75
2018-09-18T09:57:58.816Z,27.83
2018-09-18T09:58:58.896Z,27.75
2018-09-18T10:00:51.993Z,28.31
2018-09-18T10:01:51.872Z,28.04
2018-09-18T10:03:45.793Z,27.93
2018-09-18T10:04:45.578Z,27.75
2018-09-18T10:06:38.676Z,27.93
2018-09-18T10:07:38.579Z,28.03
2018-09-18T10:08:38.553Z,28.13
2018-09-18T10:09:38.540Z,28.13
2018-09-18T10:10:38.607Z,27.93
2018-09-18T10:11:38.534Z,28.04
2018-09-18T10:12:38.870Z,27.74
2018-09-18T10:13:38.546Z,28.41
2018-09-18T10:14:38.535Z,28.41
2018-09-18T10:15:38.914Z,28.22
2018-09-18T10:16:38.492Z,28.33
2018-09-18T10:17:38.825Z,28.31
2018-09-18T10:18:39.077Z,28.31
2018-09-18T10:19:38.825Z,28.22
2018-09-18T10:20:38.455Z,28.31
2018-09-18T10:21:38.473Z,28.22
2018-09-18T10:22:38.787Z,28.31
2018-09-18T10:23:38.474Z,28.41
2018-09-18T10:24:38.451Z,28.22
2018-09-18T10:25:38.415Z,28.51
2018-09-18T10:26:38.774Z,28.51
2018-09-18T10:27:38.419Z,28.61
2018-09-18T10:28:38.423Z,28.70
2018-09-18T10:29:38.391Z,28.41
2018-09-18T10:30:38.392Z,28.41
2018-09-18T10:31:38.716Z,28.51
2018-09-18T10:32:38.370Z,28.70
2018-09-18T10:33:38.380Z,28.61
2018-09-18T10:34:38.358Z,28.31
2018-09-18T10:35:38.709Z,28.41
2018-09-18T10:36:38.354Z,28.89
2018-09-18T10:37:38.689Z,28.61
2018-09-18T10:38:38.306Z,28.70
2018-09-18T10:39:38.317Z,28.51
2018-09-18T10:40:38.638Z,28.70
2018-09-18T10:41:38.311Z,28.99
2018-09-18T10:42:38.288Z,28.99
2018-09-18T10:43:38.276Z,28.89
2018-09-18T10:44:38.628Z,28.80
2018-09-18T10:45:38.603Z,28.99
2018-09-18T10:46:38.622Z,28.89
2018-09-18T10:47:38.241Z,28.99
2018-09-18T10:48:38.236Z,28.99
2018-09-18T10:49:38.961Z,29.08
2018-09-18T10:50:38.219Z,29.18
2018-09-18T10:51:38.219Z,29.18
2018-09-18T10:52:38.200Z,29.08
2018-09-18T10:53:38.228Z,28.80
2018-09-18T10:54:38.197Z,29.18
2018-09-18T10:55:38.531Z,29.28
2018-09-18T10:56:38.178Z,29.18
2018-09-18T10:57:38.508Z,29.28
2018-09-18T10:58:38.499Z,29.28
2018-09-18T10:59:38.142Z,29.08
2018-09-18T11:00:38.169Z,29.18
2018-09-18T11:01:38.157Z,29.28
2018-09-18T11:02:38.122Z,29.28
2018-09-18T11:03:38.142Z,29.18
2018-09-18T11:04:38.109Z,29.28
2018-09-18T11:05:38.109Z,29.28
2018-09-18T11:06:38.442Z,29.18
2018-09-18T11:07:38.156Z,29.08
2018-09-18T11:08:38.426Z,29.47
2018-09-18T11:09:38.465Z,29.28
2018-09-18T11:11:38.069Z,29.47
2018-09-18T11:12:38.077Z,29.38
2018-09-18T11:13:38.042Z,29.38
2018-09-18T11:14:38.420Z,29.38
2018-09-18T11:15:38.119Z,29.47
2018-09-18T11:16:38.027Z,29.38
2018-09-18T11:17:38.364Z,29.38
2018-09-18T11:18:38.090Z,29.38
2018-09-18T11:19:38.088Z,29.28
2018-09-18T11:20:37.984Z,29.38
2018-09-18T11:21:38.402Z,29.47
2018-09-18T11:22:37.972Z,29.38
2018-09-18T11:23:38.028Z,29.66
2018-09-18T11:24:38.290Z,29.57
2018-09-18T11:25:37.942Z,29.38
2018-09-18T11:26:37.932Z,29.57
2018-09-18T11:27:38.272Z,29.47
2018-09-18T11:28:37.917Z,29.66
2018-09-18T11:29:38.252Z,29.57
2018-09-18T11:30:37.920Z,29.57
2018-09-18T11:31:37.917Z,29.66
2018-09-18T11:32:38.240Z,29.57
2018-09-18T11:33:37.892Z,29.66
2018-09-18T11:34:38.227Z,29.57
2018-09-18T11:35:37.864Z,29.66
2018-09-18T11:36:37.864Z,29.66
2018-09-18T11:37:37.848Z,29.76
2018-09-18T11:38:37.852Z,29.66
2018-09-18T11:39:37.856Z,29.66
2018-09-18T11:40:38.162Z,29.57
2018-09-18T11:41:37.816Z,29.76
2018-09-18T11:42:38.162Z,29.76
2018-09-18T11:43:37.807Z,29.66
2018-09-18T11:44:37.791Z,29.76
2018-09-18T11:45:37.828Z,29.76
2018-09-18T11:46:37.803Z,29.76
2018-09-18T11:47:37.768Z,29.86
2018-09-18T11:48:37.757Z,29.76
2018-09-18T11:49:38.111Z,29.66
2018-09-18T11:50:38.079Z,29.86
2018-09-18T11:51:37.734Z,29.86
2018-09-18T11:52:37.729Z,29.76
2018-09-18T11:53:37.770Z,29.66
2018-09-18T11:54:38.051Z,29.86
2018-09-18T11:55:37.695Z,29.95
2018-09-18T11:56:37.754Z,29.95
2018-09-18T11:57:38.045Z,29.86
2018-09-18T11:58:37.685Z,29.86
2018-09-18T11:59:37.679Z,29.86
2018-09-18T12:00:37.716Z,29.95
2018-09-18T12:01:38.010Z,30.05
2018-09-18T12:02:37.663Z,29.95
2018-09-18T12:03:37.651Z,29.86
2018-09-18T12:04:37.684Z,30.05
2018-09-18T12:05:37.978Z,29.76
2018-09-18T12:06:37.954Z,29.95
2018-09-18T12:07:37.977Z,29.86
2018-09-18T12:08:37.966Z,29.95
2018-09-18T12:09:37.619Z,29.95
2018-09-18T12:10:37.586Z,30.04
2018-09-18T12:11:37.576Z,30.05
2018-09-18T12:12:37.572Z,30.05
2018-09-18T12:13:37.903Z,30.04
2018-09-18T12:14:37.558Z,30.05
2018-09-18T12:15:37.545Z,30.22
2018-09-18T12:16:37.894Z,30.04
2018-09-18T12:17:37.553Z,30.13
2018-09-18T12:18:37.525Z,29.94
2018-09-18T12:19:37.872Z,30.04
2018-09-18T12:20:37.840Z,30.22
2018-09-18T12:21:37.494Z,30.22
2018-09-18T12:22:37.495Z,30.32
2018-09-18T12:23:37.488Z,30.22
2018-09-18T12:24:37.498Z,30.22
2018-09-18T12:25:37.798Z,30.22
2018-09-18T12:26:37.484Z,30.22
2018-09-18T12:27:37.499Z,30.13
2018-09-18T12:28:37.574Z,30.22
2018-09-18T12:29:37.461Z,30.32
2018-09-18T12:30:37.441Z,30.22
2018-09-18T12:31:37.408Z,30.42
2018-09-18T12:32:37.407Z,30.32
2018-09-18T12:33:37.430Z,30.42
2018-09-18T12:34:37.391Z,30.52
2018-09-18T12:35:37.803Z,30.42
2018-09-18T12:36:37.718Z,30.42
2018-09-18T12:37:37.363Z,30.52
2018-09-18T12:38:37.380Z,30.71
2018-09-18T12:39:37.689Z,30.52
2018-09-18T12:40:37.345Z,30.52
2018-09-18T12:41:37.877Z,30.61
2018-09-18T12:42:38.238Z,30.52
2018-09-18T12:43:37.344Z,30.52
2018-09-18T12:44:37.654Z,30.61
2018-09-18T12:45:37.301Z,30.61
2018-09-18T12:46:37.293Z,30.61
2018-09-18T12:47:37.316Z,30.52
2018-09-18T12:48:37.641Z,30.71
2018-09-18T12:49:37.673Z,30.80
2018-09-18T12:50:37.359Z,30.61
2018-09-18T12:51:37.244Z,30.71
2018-09-18T12:52:37.610Z,30.71
2018-09-18T12:53:37.289Z,30.61
2018-09-18T12:54:37.232Z,30.52
2018-09-18T12:55:37.558Z,30.61
2018-09-18T12:56:37.224Z,30.61
2018-09-18T12:57:37.341Z,30.80
2018-09-18T12:58:37.221Z,30.80
2018-09-18T12:59:37.199Z,30.61
2018-09-18T13:00:37.526Z,30.52
2018-09-18T13:01:37.171Z,30.90
2018-09-18T13:02:37.168Z,30.61
2018-09-18T13:03:37.154Z,30.80
2018-09-18T13:04:37.169Z,30.90
2018-09-18T13:05:37.165Z,31.09
2018-09-18T13:06:37.259Z,30.71
2018-09-18T13:07:37.152Z,30.71
2018-09-18T13:08:37.452Z,30.61
2018-09-18T13:09:37.112Z,30.80
2018-09-18T13:10:37.457Z,30.61
2018-09-18T13:11:37.472Z,31.09
2018-09-18T13:12:37.090Z,30.90
2018-09-18T13:13:37.092Z,31.09
2018-09-18T13:14:37.076Z,31.09
2018-09-18T13:15:37.086Z,31.00
2018-09-18T13:16:37.047Z,31.09
2018-09-18T13:17:37.485Z,31.19
2018-09-18T13:18:37.032Z,31.00
2018-09-18T13:19:37.026Z,30.90
2018-09-18T13:20:37.052Z,30.90
2018-09-18T13:21:37.037Z,31.19
2018-09-18T13:22:37.366Z,31.29
2018-09-18T13:23:36.996Z,31.29
2018-09-18T13:24:36.976Z,31.38
2018-09-18T13:25:36.994Z,31.09
2018-09-18T13:26:36.975Z,31.19
2018-09-18T13:27:36.966Z,31.29
2018-09-18T13:28:36.967Z,31.00
2018-09-18T13:29:36.944Z,31.09
2018-09-18T13:30:37.035Z,31.19
2018-09-18T13:31:37.269Z,31.19
2018-09-18T13:32:36.974Z,31.09
2018-09-18T13:33:37.257Z,31.08
2018-09-18T13:34:36.908Z,31.38
2018-09-18T13:35:37.257Z,31.38
2018-09-18T13:36:36.921Z,31.29
2018-09-18T13:37:37.219Z,31.29
2018-09-18T13:38:37.206Z,31.29
2018-09-18T13:39:37.203Z,31.19
2018-09-18T13:40:36.854Z,31.38
2018-09-18T13:41:36.848Z,31.19
2018-09-18T13:42:36.837Z,31.19
2018-09-18T13:43:37.196Z,31.29
2018-09-18T13:44:36.820Z,31.38
2018-09-18T13:45:37.172Z,31.27
2018-09-18T13:46:37.252Z,31.29
2018-09-18T13:47:36.793Z,31.29
2018-09-18T13:48:37.130Z,31.57
2018-09-18T13:49:36.784Z,31.46
2018-09-18T13:50:36.772Z,31.56
2018-09-18T13:51:36.765Z,31.46
2018-09-18T13:52:36.786Z,31.46
2018-09-18T13:53:36.750Z,31.48
2018-09-18T13:54:36.768Z,31.46
2018-09-18T13:55:37.172Z,31.67
2018-09-18T13:56:36.761Z,31.75
2018-09-18T13:57:36.792Z,31.56
2018-09-18T13:58:36.723Z,31.56
2018-09-18T13:59:36.759Z,31.67
2018-09-18T14:00:36.725Z,31.67
2018-09-18T14:01:36.779Z,31.65
2018-09-18T14:02:37.012Z,31.85
2018-09-18T14:03:37.056Z,31.65
2018-09-18T14:04:37.059Z,31.67
2018-09-18T14:05:36.669Z,31.75
2018-09-18T14:06:36.642Z,31.75
2018-09-18T14:07:36.663Z,31.75
2018-09-18T14:08:36.660Z,31.75
2018-09-18T14:09:36.664Z,31.75
2018-09-18T14:10:36.611Z,31.56
2018-09-18T14:11:36.609Z,31.56
2018-09-18T14:12:36.600Z,31.65
2018-09-18T14:13:36.588Z,31.65
2018-09-18T14:14:36.633Z,31.75
2018-09-18T14:15:36.568Z,31.65
2018-09-18T14:16:36.924Z,31.65
2018-09-18T14:17:36.561Z,31.85
2018-09-18T14:18:36.543Z,31.85
2018-09-18T14:19:36.880Z,31.85
2018-09-18T14:20:36.886Z,31.95
2018-09-18T14:21:36.856Z,31.85
2018-09-18T14:22:36.854Z,32.04
2018-09-18T14:23:36.505Z,31.85
2018-09-18T14:24:36.492Z,31.85
2018-09-18T14:25:36.568Z,31.85
2018-09-18T14:26:36.552Z,31.95
2018-09-18T14:27:36.476Z,31.95
2018-09-18T14:28:36.475Z,31.95
2018-09-18T14:29:36.462Z,31.85
2018-09-18T14:30:36.804Z,31.46
2018-09-18T14:31:36.781Z,31.95
2018-09-18T14:32:36.776Z,31.46
2018-09-18T14:33:36.434Z,31.56
2018-09-18T14:34:36.423Z,31.56
2018-09-18T14:35:36.742Z,31.75
2018-09-18T14:36:36.393Z,31.75
2018-09-18T14:37:36.722Z,31.46
2018-09-18T14:38:36.736Z,32.04
2018-09-18T14:39:36.374Z,31.85
2018-09-18T14:40:36.457Z,31.85
2018-09-18T14:41:36.352Z,31.95
2018-09-18T14:42:36.691Z,31.65
2018-09-18T14:43:36.678Z,31.85
2018-09-18T14:44:36.691Z,31.75
2018-09-18T14:45:36.327Z,31.65
2018-09-18T14:46:36.337Z,31.75
2018-09-18T14:47:36.699Z,32.14
2018-09-18T14:48:36.652Z,32.14
2018-09-18T14:49:36.283Z,31.56
2018-09-18T14:50:36.275Z,31.75
2018-09-18T14:51:36.281Z,31.65
2018-09-18T14:52:36.265Z,31.75
2018-09-18T14:53:36.252Z,31.65
2018-09-18T14:54:36.247Z,31.65
2018-09-18T14:55:36.242Z,31.75
2018-09-18T14:56:36.232Z,31.75
2018-09-18T14:57:36.226Z,31.85
2018-09-18T14:58:36.219Z,31.75
2018-09-18T14:59:36.224Z,31.75
2018-09-18T15:00:36.534Z,31.65
2018-09-18T15:01:36.186Z,31.65
2018-09-18T15:02:36.183Z,31.75
2018-09-18T15:03:36.510Z,32.04
2018-09-18T15:04:36.170Z,32.04
2018-09-18T15:05:36.157Z,31.95
2018-09-18T15:06:42.350Z,31.65
2018-09-18T15:07:36.137Z,31.65
2018-09-18T15:08:36.133Z,31.65
2018-09-18T15:09:36.123Z,31.85
2018-09-18T15:10:36.161Z,31.95
2018-09-18T15:11:36.106Z,31.95
2018-09-18T15:12:36.097Z,31.95
2018-09-18T15:13:36.115Z,32.04
2018-09-18T15:14:36.096Z,32.14
2018-09-18T15:15:36.194Z,31.95
2018-09-18T15:16:36.064Z,31.95
2018-09-18T15:17:36.055Z,31.95
2018-09-18T15:18:36.052Z,32.04
2018-09-18T15:19:36.042Z,32.04
2018-09-18T15:20:36.036Z,32.04
2018-09-18T15:21:36.081Z,31.95
2018-09-18T15:22:36.018Z,32.14
2018-09-18T15:23:36.016Z,32.23
2018-09-18T15:24:36.007Z,32.23
2018-09-18T15:25:35.993Z,32.33
2018-09-18T15:26:35.995Z,32.23
2018-09-18T15:27:36.027Z,32.23
2018-09-18T15:28:35.964Z,32.14
2018-09-18T15:29:35.956Z,32.33
2018-09-18T15:30:35.955Z,32.04
2018-09-18T15:31:35.950Z,32.23
2018-09-18T15:32:35.934Z,32.23
2018-09-18T15:33:35.965Z,32.33
2018-09-18T15:34:35.917Z,32.33
2018-09-18T15:35:35.911Z,32.14
2018-09-18T15:36:35.894Z,32.43
2018-09-18T15:37:35.892Z,32.23
2018-09-18T15:38:35.883Z,32.52
2018-09-18T15:39:35.933Z,32.43
2018-09-18T15:40:35.870Z,32.33
2018-09-18T15:41:35.865Z,32.43
2018-09-18T15:42:35.844Z,32.33
2018-09-18T15:43:35.848Z,32.43
2018-09-18T15:44:35.841Z,32.33
2018-09-18T15:45:35.869Z,32.43
2018-09-18T15:46:35.816Z,32.62
2018-09-18T15:47:35.812Z,32.33
2018-09-18T15:48:35.891Z,32.52
2018-09-18T15:49:35.799Z,32.62
2018-09-18T15:50:35.814Z,32.62
2018-09-18T15:51:35.821Z,32.62
2018-09-18T15:52:35.791Z,32.71
2018-09-18T15:53:35.760Z,32.62
2018-09-18T15:54:35.757Z,32.62
2018-09-18T15:55:35.742Z,32.62
2018-09-18T15:56:35.744Z,32.62
2018-09-18T15:57:35.739Z,32.71
2018-09-18T15:58:35.716Z,32.71
2018-09-18T15:59:35.710Z,32.52